createdAt,value
2023-05-31T00:00:20.070Z,19.600
2023-05-31T00:01:32.989Z,19.600
2023-05-31T00:02:26.673Z,19.600
2023-05-31T00:03:23.561Z,19.600
2023-05-31T00:04:24.554Z,19.500
2023-05-31T00:05:23.552Z,19.500
2023-05-31T00:06:24.659Z,19.500
2023-05-31T00:07:20.245Z,19.500
2023-05-31T00:08:27.469Z,19.500
2023-05-31T00:09:27.686Z,19.500
2023-05-31T00:10:22.374Z,19.400
2023-05-31T00:11:24.073Z,19.400
2023-05-31T00:12:22.208Z,19.400
2023-05-31T00:13:25.078Z,19.400
2023-05-31T00:15:22.262Z,19.400
2023-05-31T00:16:52.338Z,19.400
2023-05-31T00:17:50.072Z,19.400
2023-05-31T00:20:24.613Z,19.300
2023-05-31T00:22:32.736Z,19.300
2023-05-31T00:23:22.589Z,19.300
2023-05-31T00:24:22.558Z,19.300
2023-05-31T00:25:33.641Z,19.300
2023-05-31T00:27:26.503Z,19.300
2023-05-31T00:28:21.657Z,19.200
2023-05-31T00:30:22.847Z,19.200
2023-05-31T00:31:24.047Z,19.200
2023-05-31T00:32:23.422Z,19.200
2023-05-31T00:33:28.833Z,19.200
2023-05-31T00:34:21.775Z,19.200
2023-05-31T00:35:21.513Z,19.200
2023-05-31T00:36:31.030Z,19.200
2023-05-31T00:37:26.651Z,19.100
2023-05-31T00:38:22.609Z,19.100
2023-05-31T00:39:32.309Z,19.100
2023-05-31T00:40:30.409Z,19.100
2023-05-31T00:42:21.225Z,19.100
2023-05-31T00:43:22.844Z,19.100
2023-05-31T00:46:32.416Z,19.000
2023-05-31T00:47:30.180Z,19.000
2023-05-31T00:48:24.446Z,19.000
2023-05-31T00:50:26.748Z,19.000
2023-05-31T00:51:20.674Z,19.000
2023-05-31T00:52:23.731Z,18.900
2023-05-31T00:53:34.550Z,18.900
2023-05-31T00:54:28.230Z,18.900
2023-05-31T00:55:28.655Z,18.900
2023-05-31T00:56:20.324Z,18.800
2023-05-31T00:57:32.402Z,18.800
2023-05-31T00:59:22.337Z,18.800
2023-05-31T01:00:23.846Z,18.800
2023-05-31T01:01:30.997Z,18.700
2023-05-31T01:03:34.202Z,18.700
2023-05-31T01:04:42.724Z,18.700
2023-05-31T01:10:26.600Z,18.600
2023-05-31T01:11:22.110Z,18.600
2023-05-31T01:12:27.515Z,18.600
2023-05-31T01:13:25.508Z,18.500
2023-05-31T01:15:43.841Z,18.500
2023-05-31T01:15:51.394Z,18.400
2023-05-31T01:16:27.121Z,18.400
2023-05-31T01:21:30.420Z,18.100
2023-05-31T01:22:29.038Z,18.100
2023-05-31T01:23:26.685Z,18.100
2023-05-31T01:24:21.665Z,18.000
2023-05-31T01:25:31.274Z,18.000
2023-05-31T01:26:29.179Z,18.000
2023-05-31T01:29:20.642Z,18.000
2023-05-31T01:30:24.494Z,18.000
2023-05-31T01:32:31.164Z,18.000
2023-05-31T01:33:26.167Z,18.000
2023-05-31T01:34:29.074Z,18.000
2023-05-31T01:35:24.391Z,18.000
2023-05-31T01:36:24.278Z,18.000
2023-05-31T01:37:24.321Z,18.000
2023-05-31T01:38:20.577Z,18.000
2023-05-31T01:39:29.998Z,18.000
2023-05-31T01:40:27.858Z,18.000
2023-05-31T01:41:22.234Z,18.000
2023-05-31T01:42:35.491Z,18.000
2023-05-31T01:46:21.737Z,17.900
2023-05-31T01:47:28.278Z,17.900
2023-05-31T01:48:24.182Z,17.900
2023-05-31T01:49:27.108Z,17.900
2023-05-31T01:50:28.277Z,17.900
2023-05-31T01:53:27.245Z,17.900
2023-05-31T01:54:45.278Z,17.800
2023-05-31T01:55:24.633Z,17.800
2023-05-31T01:57:21.625Z,17.700
2023-05-31T01:58:24.296Z,17.700
2023-05-31T01:59:23.258Z,17.700
2023-05-31T02:01:27.852Z,17.700
2023-05-31T02:02:25.135Z,17.650
2023-05-31T02:03:38.928Z,17.600
2023-05-31T02:04:29.054Z,17.600
2023-05-31T02:06:20.108Z,17.500
2023-05-31T02:07:21.113Z,17.500
2023-05-31T02:08:27.522Z,17.500
2023-05-31T02:09:22.303Z,17.500
2023-05-31T02:10:32.734Z,17.400
2023-05-31T02:11:32.972Z,17.400
2023-05-31T02:13:22.554Z,17.300
2023-05-31T02:14:24.187Z,17.300
2023-05-31T02:15:21.692Z,17.300
2023-05-31T02:16:24.497Z,17.300
2023-05-31T02:17:34.741Z,17.400
2023-05-31T02:18:30.463Z,17.400
2023-05-31T02:21:30.931Z,17.400
2023-05-31T02:22:29.293Z,17.400
2023-05-31T02:23:23.472Z,17.500
2023-05-31T02:24:33.806Z,17.500
2023-05-31T02:25:30.357Z,17.500
2023-05-31T02:26:24.812Z,17.500
2023-05-31T02:27:21.684Z,17.500
2023-05-31T02:30:24.183Z,17.400
2023-05-31T02:31:33.309Z,17.400
2023-05-31T02:32:30.234Z,17.300
2023-05-31T02:34:20.677Z,17.300
2023-05-31T02:35:22.813Z,17.300
2023-05-31T02:36:29.197Z,17.300
2023-05-31T02:39:30.223Z,17.300
2023-05-31T02:40:25.398Z,17.300
2023-05-31T02:41:21.150Z,17.300
2023-05-31T02:42:28.194Z,17.300
2023-05-31T02:44:22.659Z,17.300
2023-05-31T02:46:28.704Z,17.200
2023-05-31T02:48:20.479Z,17.200
2023-05-31T02:49:30.282Z,17.200
2023-05-31T02:50:24.273Z,17.200
2023-05-31T02:51:23.145Z,17.200
2023-05-31T02:53:30.230Z,17.200
2023-05-31T02:54:24.153Z,17.200
2023-05-31T02:55:22.109Z,17.200
2023-05-31T02:56:32.413Z,17.200
2023-05-31T02:57:28.091Z,17.200
2023-05-31T02:58:27.881Z,17.200
2023-05-31T02:59:28.329Z,17.200
2023-05-31T03:00:21.457Z,17.200
2023-05-31T03:01:24.413Z,17.100
2023-05-31T03:02:21.037Z,17.100
2023-05-31T03:03:31.191Z,17.100
2023-05-31T03:04:33.003Z,17.000
2023-05-31T03:05:24.186Z,17.000
2023-05-31T03:08:24.708Z,17.000
2023-05-31T03:09:20.564Z,17.000
2023-05-31T03:10:34.993Z,17.000
2023-05-31T03:11:26.791Z,17.000
2023-05-31T03:12:24.746Z,17.000
2023-05-31T03:16:20.389Z,16.900
2023-05-31T03:17:30.656Z,16.900
2023-05-31T03:18:29.463Z,16.900
2023-05-31T03:19:22.523Z,16.800
2023-05-31T03:20:25.259Z,16.800
2023-05-31T03:21:29.938Z,16.800
2023-05-31T03:22:28.787Z,16.800
2023-05-31T03:24:31.902Z,16.800
2023-05-31T03:25:41.886Z,16.800
2023-05-31T03:26:23.878Z,16.800
2023-05-31T03:27:24.685Z,16.800
2023-05-31T03:28:22.519Z,16.700
2023-05-31T03:29:25.481Z,16.700
2023-05-31T03:30:22.113Z,16.700
2023-05-31T03:31:19.791Z,16.700
2023-05-31T03:32:29.294Z,16.700
2023-05-31T03:33:22.493Z,16.650
2023-05-31T03:34:27.658Z,16.600
2023-05-31T03:35:30.264Z,16.600
2023-05-31T03:36:24.731Z,16.600
2023-05-31T03:37:20.731Z,16.600
2023-05-31T03:38:25.012Z,16.500
2023-05-31T03:39:26.781Z,16.500
2023-05-31T03:40:25.192Z,16.500
2023-05-31T03:41:34.480Z,16.450
2023-05-31T03:42:30.064Z,16.400
2023-05-31T03:43:26.379Z,16.400
2023-05-31T03:44:20.700Z,16.300
2023-05-31T03:45:26.443Z,16.300
2023-05-31T03:46:28.621Z,16.300
2023-05-31T03:47:23.193Z,16.300
2023-05-31T03:48:35.473Z,16.300
2023-05-31T03:49:20.274Z,16.200
2023-05-31T03:50:28.241Z,16.200
2023-05-31T03:51:20.594Z,16.100
2023-05-31T03:52:30.395Z,16.100
2023-05-31T03:54:22.301Z,16.100
2023-05-31T03:55:38.662Z,16.000
2023-05-31T03:56:23.655Z,16.000
2023-05-31T03:57:25.992Z,15.900
2023-05-31T03:58:20.584Z,15.900
2023-05-31T03:59:34.048Z,15.900
2023-05-31T04:02:33.962Z,15.800
2023-05-31T04:03:29.266Z,15.800
2023-05-31T04:04:25.398Z,15.800
2023-05-31T04:05:20.561Z,15.800
2023-05-31T04:07:21.646Z,15.700
2023-05-31T04:08:26.642Z,15.700
2023-05-31T04:10:29.854Z,15.700
2023-05-31T04:11:23.831Z,15.700
2023-05-31T04:13:26.253Z,15.700
2023-05-31T04:14:26.649Z,15.700
2023-05-31T04:15:22.570Z,15.700
2023-05-31T04:16:22.189Z,15.700
2023-05-31T04:17:31.367Z,15.700
2023-05-31T04:18:20.463Z,15.600
2023-05-31T04:19:21.935Z,15.600
2023-05-31T04:20:32.394Z,15.600
2023-05-31T04:21:22.024Z,15.600
2023-05-31T04:22:22.352Z,15.600
2023-05-31T04:23:27.734Z,15.600
2023-05-31T04:24:29.754Z,15.600
2023-05-31T04:25:25.379Z,15.600
2023-05-31T04:26:22.485Z,15.600
2023-05-31T04:27:32.230Z,15.600
2023-05-31T04:28:26.732Z,15.600
2023-05-31T04:29:38.033Z,15.600
2023-05-31T04:31:22.452Z,15.700
2023-05-31T04:32:28.670Z,15.600
2023-05-31T04:33:20.552Z,15.600
2023-05-31T04:34:32.250Z,15.650
2023-05-31T04:35:26.708Z,15.600
2023-05-31T04:36:24.623Z,15.600
2023-05-31T04:37:36.097Z,15.700
2023-05-31T04:38:28.908Z,15.700
2023-05-31T04:39:25.744Z,15.600
2023-05-31T04:40:20.854Z,15.600
2023-05-31T04:41:30.548Z,15.600
2023-05-31T04:42:27.745Z,15.600
2023-05-31T04:43:24.526Z,15.600
2023-05-31T04:44:20.521Z,15.600
2023-05-31T04:48:30.604Z,15.600
2023-05-31T04:49:27.892Z,15.600
2023-05-31T04:50:22.555Z,15.600
2023-05-31T04:51:26.117Z,15.600
2023-05-31T04:53:24.276Z,15.600
2023-05-31T04:54:21.738Z,15.600
2023-05-31T04:56:28.137Z,15.600
2023-05-31T04:57:22.598Z,15.600
2023-05-31T04:58:29.084Z,15.600
2023-05-31T04:59:21.916Z,15.700
2023-05-31T05:00:24.423Z,15.700
2023-05-31T05:01:20.482Z,15.700
2023-05-31T05:02:32.061Z,15.700
2023-05-31T05:03:27.359Z,15.700
2023-05-31T05:04:24.557Z,15.700
2023-05-31T05:05:19.542Z,15.700
2023-05-31T05:06:25.333Z,15.800
2023-05-31T05:07:24.505Z,15.800
2023-05-31T05:08:22.246Z,15.800
2023-05-31T05:09:23.321Z,15.800
2023-05-31T05:10:26.166Z,15.800
2023-05-31T05:11:24.232Z,15.800
2023-05-31T05:12:35.066Z,15.800
2023-05-31T05:13:29.884Z,15.900
2023-05-31T05:14:26.395Z,15.900
2023-05-31T05:15:20.239Z,15.900
2023-05-31T05:16:28.267Z,15.900
2023-05-31T05:17:19.602Z,15.900
2023-05-31T05:18:22.445Z,15.900
2023-05-31T05:19:25.905Z,15.900
2023-05-31T05:20:29.634Z,15.950
2023-05-31T05:21:25.628Z,16.000
2023-05-31T05:22:21.381Z,16.000
2023-05-31T05:23:20.517Z,16.000
2023-05-31T05:24:24.671Z,16.000
2023-05-31T05:26:29.192Z,16.000
2023-05-31T05:27:28.652Z,16.000
2023-05-31T05:28:24.611Z,16.000
2023-05-31T05:29:20.315Z,16.000
2023-05-31T05:30:23.611Z,16.000
2023-05-31T05:31:27.911Z,16.000
2023-05-31T05:33:32.732Z,16.000
2023-05-31T05:34:28.713Z,16.000
2023-05-31T05:35:19.900Z,16.100
2023-05-31T05:36:20.090Z,16.100
2023-05-31T05:37:21.426Z,16.100
2023-05-31T05:38:26.652Z,16.100
2023-05-31T05:39:22.737Z,16.100
2023-05-31T05:41:21.873Z,16.100
2023-05-31T05:42:26.632Z,16.100
2023-05-31T05:43:20.971Z,16.100
2023-05-31T05:44:24.068Z,16.100
2023-05-31T05:45:26.807Z,16.100
2023-05-31T05:46:24.246Z,16.100
2023-05-31T05:49:26.915Z,16.200
2023-05-31T05:50:21.398Z,16.200
2023-05-31T05:51:28.481Z,16.200
2023-05-31T05:52:23.302Z,16.200
2023-05-31T05:53:22.729Z,16.200
2023-05-31T05:54:26.452Z,16.200
2023-05-31T05:55:20.588Z,16.200
2023-05-31T05:56:26.949Z,16.200
2023-05-31T05:57:20.416Z,16.200
2023-05-31T05:58:28.826Z,16.250
2023-05-31T05:59:26.612Z,16.300
2023-05-31T06:00:23.185Z,16.300
2023-05-31T06:01:36.185Z,16.300
2023-05-31T06:02:24.372Z,16.300
2023-05-31T06:03:24.818Z,16.300
2023-05-31T06:04:20.438Z,16.300
2023-05-31T06:05:31.192Z,16.300
2023-05-31T06:06:30.890Z,16.300
2023-05-31T06:08:35.038Z,16.300
2023-05-31T06:10:21.808Z,16.300
2023-05-31T06:12:31.872Z,16.300
2023-05-31T06:13:28.417Z,16.300
2023-05-31T06:14:22.820Z,16.300
2023-05-31T06:15:28.880Z,16.400
2023-05-31T06:17:24.920Z,16.400
2023-05-31T06:19:33.507Z,16.400
2023-05-31T06:20:27.328Z,16.450
2023-05-31T06:21:23.622Z,16.500
2023-05-31T06:22:24.678Z,16.500
2023-05-31T06:24:29.743Z,16.500
2023-05-31T06:27:26.342Z,16.500
2023-05-31T06:28:22.505Z,16.500
2023-05-31T06:29:29.437Z,16.500
2023-05-31T06:30:20.152Z,16.500
2023-05-31T06:31:24.194Z,16.500
2023-05-31T06:32:22.616Z,16.500
2023-05-31T06:33:20.198Z,16.500
2023-05-31T06:34:31.591Z,16.600
2023-05-31T06:35:24.889Z,16.600
2023-05-31T06:36:32.497Z,16.600
2023-05-31T06:37:25.940Z,16.700
2023-05-31T06:38:42.954Z,16.700
2023-05-31T06:40:23.836Z,16.700
2023-05-31T06:41:27.356Z,16.800
2023-05-31T06:42:24.401Z,16.800
2023-05-31T06:43:27.669Z,16.800
2023-05-31T06:44:30.800Z,16.800
2023-05-31T06:46:22.959Z,16.800
2023-05-31T06:48:21.386Z,16.800
2023-05-31T06:50:32.610Z,16.800
2023-05-31T06:51:28.357Z,16.900
2023-05-31T06:52:27.030Z,16.900
2023-05-31T06:55:27.313Z,17.000
2023-05-31T06:56:23.633Z,17.000
2023-05-31T06:57:21.062Z,17.000
2023-05-31T06:58:28.758Z,17.000
2023-05-31T06:59:24.418Z,17.000
2023-05-31T07:00:23.692Z,17.100
2023-05-31T07:02:30.983Z,17.300
2023-05-31T07:04:23.304Z,17.200
2023-05-31T07:05:23.103Z,17.200
2023-05-31T07:06:24.392Z,17.200
2023-05-31T07:07:20.738Z,17.200
2023-05-31T07:08:30.359Z,17.200
2023-05-31T07:09:26.582Z,17.200
2023-05-31T07:10:23.133Z,17.200
2023-05-31T07:11:32.901Z,17.200
2023-05-31T07:12:28.580Z,17.300
2023-05-31T07:13:26.234Z,17.300
2023-05-31T07:14:20.397Z,17.300
2023-05-31T07:15:23.347Z,17.300
2023-05-31T07:16:26.449Z,17.400
2023-05-31T07:17:22.895Z,17.400
2023-05-31T07:18:23.256Z,17.400
2023-05-31T07:19:29.230Z,17.400
2023-05-31T07:20:25.951Z,17.400
2023-05-31T07:21:20.771Z,17.500
2023-05-31T07:22:29.073Z,17.400
2023-05-31T07:23:20.416Z,17.500
2023-05-31T07:24:22.789Z,17.500
2023-05-31T07:25:27.381Z,17.500
2023-05-31T07:26:20.508Z,17.500
2023-05-31T07:28:20.610Z,17.600
2023-05-31T07:29:28.539Z,17.600
2023-05-31T07:30:29.222Z,17.600
2023-05-31T07:31:22.320Z,17.600
2023-05-31T07:32:32.893Z,17.600
2023-05-31T07:33:28.729Z,17.600
2023-05-31T07:35:20.628Z,17.600
2023-05-31T07:36:30.845Z,17.700
2023-05-31T07:38:22.468Z,17.700
2023-05-31T07:39:37.431Z,17.800
2023-05-31T07:40:25.834Z,17.800
2023-05-31T07:41:24.121Z,17.800
2023-05-31T07:42:20.723Z,17.900
2023-05-31T07:43:32.949Z,17.900
2023-05-31T07:44:20.398Z,17.900
2023-05-31T07:45:26.371Z,17.900
2023-05-31T07:46:32.786Z,18.000
2023-05-31T07:48:26.519Z,18.000
2023-05-31T07:50:22.782Z,18.000
2023-05-31T07:51:24.946Z,18.100
2023-05-31T07:52:22.838Z,18.100
2023-05-31T07:54:28.819Z,18.200
2023-05-31T07:55:24.598Z,18.200
2023-05-31T07:56:20.442Z,18.200
2023-05-31T07:57:32.040Z,18.300
2023-05-31T07:58:26.768Z,18.300
2023-05-31T07:59:22.610Z,18.300
2023-05-31T08:00:29.563Z,18.400
2023-05-31T08:01:20.696Z,18.400
2023-05-31T08:02:24.615Z,18.400
2023-05-31T08:03:28.993Z,18.500
2023-05-31T08:04:20.438Z,18.500
2023-05-31T08:05:26.873Z,18.500
2023-05-31T08:06:22.794Z,18.500
2023-05-31T08:07:24.691Z,18.550
2023-05-31T08:08:31.002Z,18.600
2023-05-31T08:09:24.658Z,18.600
2023-05-31T08:10:20.445Z,18.700
2023-05-31T08:11:24.784Z,18.900
2023-05-31T08:12:31.705Z,18.900
2023-05-31T08:13:23.153Z,18.900
2023-05-31T08:14:33.424Z,18.900
2023-05-31T08:15:30.236Z,18.900
2023-05-31T08:16:20.139Z,18.900
2023-05-31T08:18:21.653Z,19.000
2023-05-31T08:19:21.901Z,19.000
2023-05-31T08:20:22.868Z,19.000
2023-05-31T08:21:32.457Z,19.100
2023-05-31T08:22:31.262Z,19.100
2023-05-31T08:23:24.640Z,19.100
2023-05-31T08:24:22.842Z,19.100
2023-05-31T08:25:34.788Z,19.100
2023-05-31T08:27:22.629Z,19.200
2023-05-31T08:28:34.913Z,19.300
2023-05-31T08:29:28.639Z,19.350
2023-05-31T08:30:26.955Z,19.400
2023-05-31T08:31:35.986Z,19.400
2023-05-31T08:32:33.224Z,19.500
2023-05-31T08:34:24.288Z,19.500
2023-05-31T08:37:25.185Z,19.600
2023-05-31T08:38:21.942Z,19.600
2023-05-31T08:41:22.301Z,19.700
2023-05-31T08:42:22.468Z,19.700
2023-05-31T08:43:28.966Z,19.700
2023-05-31T08:44:24.224Z,19.700
2023-05-31T08:45:21.397Z,19.750
2023-05-31T08:46:21.994Z,19.800
2023-05-31T08:47:26.977Z,19.800
2023-05-31T08:48:22.648Z,19.800
2023-05-31T08:49:24.923Z,19.900
2023-05-31T08:51:25.220Z,19.900
2023-05-31T08:52:20.530Z,20.000
2023-05-31T08:53:27.882Z,20.000
2023-05-31T08:54:27.734Z,20.000
2023-05-31T08:55:24.362Z,20.000
2023-05-31T08:58:25.807Z,20.100
2023-05-31T08:59:20.305Z,20.200
2023-05-31T09:00:44.591Z,20.200
2023-05-31T09:01:23.209Z,20.200
2023-05-31T09:02:24.389Z,20.200
2023-05-31T09:03:27.207Z,20.200
2023-05-31T09:04:31.409Z,20.200
2023-05-31T09:06:23.071Z,20.200
2023-05-31T09:07:22.642Z,20.250
2023-05-31T09:08:26.772Z,20.300
2023-05-31T09:09:20.384Z,20.300
2023-05-31T09:10:32.665Z,20.400
2023-05-31T09:11:30.314Z,20.400
2023-05-31T09:13:21.127Z,20.500
2023-05-31T09:14:21.376Z,20.500
2023-05-31T09:15:26.716Z,20.500
2023-05-31T09:16:25.001Z,20.600
2023-05-31T09:17:33.584Z,20.600
2023-05-31T09:18:28.913Z,20.600
2023-05-31T09:21:31.863Z,20.500
2023-05-31T09:22:26.733Z,20.600
2023-05-31T09:23:24.099Z,20.650
2023-05-31T09:24:21.874Z,20.700
2023-05-31T09:25:28.736Z,20.700
2023-05-31T09:26:24.741Z,20.800
2023-05-31T09:28:32.188Z,20.800
2023-05-31T09:29:28.688Z,20.800
2023-05-31T09:30:23.711Z,20.800
2023-05-31T09:31:23.277Z,20.800
2023-05-31T09:32:28.687Z,20.900
2023-05-31T09:34:23.847Z,20.900
2023-05-31T09:35:22.073Z,21.000
2023-05-31T09:36:26.551Z,21.000
2023-05-31T09:37:22.725Z,21.000
2023-05-31T09:38:28.900Z,21.000
2023-05-31T09:39:23.115Z,21.000
2023-05-31T09:40:24.824Z,21.000
2023-05-31T09:41:20.632Z,21.000
2023-05-31T09:42:25.996Z,21.100
2023-05-31T09:43:28.850Z,21.100
2023-05-31T09:44:22.667Z,21.100
2023-05-31T09:45:33.265Z,21.100
2023-05-31T09:46:28.352Z,21.100
2023-05-31T09:47:22.055Z,21.100
2023-05-31T09:48:24.848Z,21.200
2023-05-31T09:49:31.604Z,21.200
2023-05-31T09:50:23.885Z,21.200
2023-05-31T09:51:25.012Z,21.200
2023-05-31T09:52:33.001Z,21.300
2023-05-31T09:53:31.307Z,21.300
2023-05-31T09:54:27.703Z,21.400
2023-05-31T09:55:20.629Z,21.400
2023-05-31T09:57:29.366Z,21.400
2023-05-31T09:59:22.528Z,21.500
2023-05-31T10:00:29.472Z,21.500
2023-05-31T10:01:27.223Z,21.550
2023-05-31T10:02:20.618Z,21.600
2023-05-31T10:03:30.841Z,21.600
2023-05-31T10:04:27.188Z,21.600
2023-05-31T10:05:22.446Z,21.700
2023-05-31T10:07:29.371Z,21.700
2023-05-31T10:08:26.735Z,21.700
2023-05-31T10:09:20.495Z,21.700
2023-05-31T10:10:30.844Z,21.700
2023-05-31T10:12:23.014Z,21.800
2023-05-31T10:13:23.179Z,21.800
2023-05-31T10:14:29.837Z,21.800
2023-05-31T10:16:22.847Z,21.900
2023-05-31T10:17:20.818Z,21.900
2023-05-31T10:18:27.449Z,21.900
2023-05-31T10:20:26.611Z,22.000
2023-05-31T10:21:29.019Z,22.000
2023-05-31T10:22:29.196Z,22.100
2023-05-31T10:23:22.008Z,22.100
2023-05-31T10:24:26.974Z,22.200
2023-05-31T10:25:29.004Z,22.200
2023-05-31T10:27:19.482Z,22.300
2023-05-31T10:28:22.962Z,22.400
2023-05-31T10:29:27.324Z,22.400
2023-05-31T10:30:21.006Z,22.300
2023-05-31T10:31:31.822Z,22.400
2023-05-31T10:32:22.156Z,22.400
2023-05-31T10:33:26.225Z,22.500
2023-05-31T10:34:19.988Z,22.500
2023-05-31T10:35:30.787Z,22.600
2023-05-31T10:36:20.648Z,22.600
2023-05-31T10:37:22.091Z,22.700
2023-05-31T10:38:33.217Z,22.800
2023-05-31T10:39:30.327Z,22.850
2023-05-31T10:40:23.528Z,22.900
2023-05-31T10:41:27.019Z,23.000
2023-05-31T10:42:29.941Z,23.000
2023-05-31T10:44:22.578Z,23.100
2023-05-31T10:45:32.590Z,23.100
2023-05-31T10:46:27.371Z,23.100
2023-05-31T10:47:23.944Z,23.200
2023-05-31T10:48:25.777Z,23.200
2023-05-31T10:50:31.078Z,23.300
2023-05-31T10:53:28.073Z,23.400
2023-05-31T10:54:22.799Z,23.400
2023-05-31T10:55:22.111Z,23.500
2023-05-31T10:57:25.389Z,23.700
2023-05-31T10:58:22.186Z,23.700
2023-05-31T10:59:25.283Z,23.700
2023-05-31T11:00:26.913Z,23.800
2023-05-31T11:01:25.720Z,23.900
2023-05-31T11:02:23.970Z,23.900
2023-05-31T11:03:29.038Z,24.000
2023-05-31T11:05:21.446Z,24.000
2023-05-31T11:07:29.678Z,24.200
2023-05-31T11:08:22.595Z,24.200
2023-05-31T11:09:27.999Z,24.200
2023-05-31T11:10:23.334Z,24.200
2023-05-31T11:11:25.308Z,24.300
2023-05-31T11:12:23.638Z,24.300
2023-05-31T11:13:34.828Z,24.400
2023-05-31T11:14:20.436Z,24.400
2023-05-31T11:15:24.281Z,24.400
2023-05-31T11:16:34.589Z,24.500
2023-05-31T11:17:26.119Z,24.500
2023-05-31T11:18:26.937Z,24.500
2023-05-31T11:19:20.505Z,24.600
2023-05-31T11:22:23.166Z,24.800
2023-05-31T11:23:33.903Z,24.900
2023-05-31T11:24:30.633Z,25.000
2023-05-31T11:25:24.074Z,25.000
2023-05-31T11:26:22.591Z,25.000
2023-05-31T11:27:30.995Z,25.100
2023-05-31T11:28:22.698Z,25.100
2023-05-31T11:29:24.751Z,25.100
2023-05-31T11:30:37.376Z,25.200
2023-05-31T11:32:26.098Z,25.250
2023-05-31T11:33:39.580Z,25.300
2023-05-31T11:34:30.740Z,25.300
2023-05-31T11:35:27.367Z,25.400
2023-05-31T11:36:25.592Z,25.400
2023-05-31T11:39:20.708Z,25.500
2023-05-31T11:40:24.780Z,25.600
2023-05-31T11:41:32.694Z,25.600
2023-05-31T11:42:28.913Z,25.700
2023-05-31T11:43:22.746Z,25.700
2023-05-31T11:44:24.233Z,25.700
2023-05-31T11:45:28.869Z,25.700
2023-05-31T11:46:24.871Z,25.800
2023-05-31T11:47:20.985Z,25.700
2023-05-31T11:48:20.173Z,25.700
2023-05-31T11:49:28.346Z,25.700
2023-05-31T11:51:28.842Z,25.800
2023-05-31T11:52:20.237Z,25.800
2023-05-31T11:53:26.908Z,25.900
2023-05-31T11:54:21.737Z,25.900
2023-05-31T11:55:25.667Z,26.000
2023-05-31T11:56:26.696Z,26.100
2023-05-31T11:57:22.770Z,26.100
2023-05-31T11:58:35.469Z,26.200
2023-05-31T11:59:25.386Z,26.200
2023-05-31T12:00:26.557Z,26.300
2023-05-31T12:01:20.810Z,26.300
2023-05-31T12:02:29.323Z,26.250
2023-05-31T12:03:23.094Z,26.200
2023-05-31T12:04:25.675Z,26.200
2023-05-31T12:05:36.384Z,26.100
2023-05-31T12:07:21.652Z,26.200
2023-05-31T12:08:20.764Z,26.100
2023-05-31T12:09:32.934Z,26.200
2023-05-31T12:10:26.553Z,26.200
2023-05-31T12:11:22.647Z,26.200
2023-05-31T12:13:29.136Z,26.300
2023-05-31T12:14:27.011Z,26.400
2023-05-31T12:16:30.958Z,26.400
2023-05-31T12:17:30.752Z,26.450
2023-05-31T12:18:22.700Z,26.500
2023-05-31T12:20:29.163Z,26.500
2023-05-31T12:21:25.988Z,26.400
2023-05-31T12:22:22.885Z,26.500
2023-05-31T12:24:29.690Z,26.500
2023-05-31T12:25:22.716Z,26.600
2023-05-31T12:26:22.829Z,26.700
2023-05-31T12:27:41.166Z,26.700
2023-05-31T12:28:26.113Z,26.700
2023-05-31T12:29:20.628Z,26.800
2023-05-31T12:30:19.930Z,26.800
2023-05-31T12:31:29.822Z,26.800
2023-05-31T12:32:23.986Z,26.800
2023-05-31T12:33:26.442Z,26.800
2023-05-31T12:34:28.985Z,26.800
2023-05-31T12:35:26.822Z,26.900
2023-05-31T12:36:21.063Z,26.900
2023-05-31T12:37:23.972Z,26.900
2023-05-31T12:38:26.951Z,26.900
2023-05-31T12:39:25.851Z,26.900
2023-05-31T12:40:34.041Z,26.900
2023-05-31T12:41:19.416Z,26.900
2023-05-31T12:42:25.106Z,26.900
2023-05-31T12:43:22.678Z,26.900
2023-05-31T12:44:21.859Z,26.900
2023-05-31T12:45:23.310Z,26.900
2023-05-31T12:46:23.108Z,26.900
2023-05-31T12:47:32.798Z,27.000
2023-05-31T12:48:23.985Z,27.000
2023-05-31T12:49:26.177Z,27.100
2023-05-31T12:50:21.178Z,27.000
2023-05-31T12:51:26.509Z,27.000
2023-05-31T12:53:23.787Z,27.000
2023-05-31T12:54:35.406Z,26.900
2023-05-31T12:55:19.790Z,26.900
2023-05-31T12:56:21.813Z,27.000
2023-05-31T12:57:21.265Z,27.000
2023-05-31T12:58:30.993Z,27.000
2023-05-31T12:59:26.882Z,27.000
2023-05-31T13:00:39.873Z,27.000
2023-05-31T13:02:23.412Z,27.100
2023-05-31T13:03:26.654Z,27.000
2023-05-31T13:04:21.284Z,27.000
2023-05-31T13:05:29.017Z,27.000
2023-05-31T13:06:26.902Z,27.100
2023-05-31T13:07:22.895Z,27.100
2023-05-31T13:09:29.329Z,27.100
2023-05-31T13:10:21.944Z,27.100
2023-05-31T13:11:21.990Z,27.050
2023-05-31T13:12:33.686Z,27.000
2023-05-31T13:13:23.164Z,27.000
2023-05-31T13:14:26.134Z,27.000
2023-05-31T13:15:25.224Z,27.000
2023-05-31T13:16:26.070Z,27.000
2023-05-31T13:17:25.087Z,27.100
2023-05-31T13:18:22.935Z,27.050
2023-05-31T13:19:32.606Z,27.100
2023-05-31T13:20:27.035Z,27.100
2023-05-31T13:21:23.740Z,27.200
2023-05-31T13:22:30.293Z,27.200
2023-05-31T13:23:21.270Z,27.100
2023-05-31T13:24:26.121Z,27.100
2023-05-31T13:25:20.748Z,27.100
2023-05-31T13:26:22.700Z,27.050
2023-05-31T13:27:23.670Z,27.000
2023-05-31T13:29:34.030Z,27.000
2023-05-31T13:31:23.143Z,27.100
2023-05-31T13:32:20.914Z,27.000
2023-05-31T13:33:32.755Z,27.000
2023-05-31T13:34:19.849Z,27.000
2023-05-31T13:35:24.234Z,27.000
2023-05-31T13:36:34.425Z,27.000
2023-05-31T13:37:34.025Z,27.100
2023-05-31T13:39:20.756Z,27.100
2023-05-31T13:40:32.235Z,27.100
2023-05-31T13:41:23.898Z,27.150
2023-05-31T13:42:23.102Z,27.100
2023-05-31T13:44:25.407Z,27.100
2023-05-31T13:45:27.771Z,27.100
2023-05-31T13:47:33.554Z,27.000
2023-05-31T13:48:28.086Z,27.000
2023-05-31T13:49:21.871Z,27.000
2023-05-31T13:50:33.869Z,27.000
2023-05-31T13:51:29.602Z,27.000
2023-05-31T13:53:24.313Z,27.000
2023-05-31T13:55:24.055Z,26.900
2023-05-31T13:56:27.298Z,26.900
2023-05-31T13:57:32.896Z,26.800
2023-05-31T13:58:30.780Z,26.800
2023-05-31T13:59:24.966Z,26.700
2023-05-31T14:00:28.412Z,26.700
2023-05-31T14:01:21.514Z,26.600
2023-05-31T14:02:29.037Z,26.600
2023-05-31T14:03:23.053Z,26.600
2023-05-31T14:04:23.917Z,26.600
2023-05-31T14:05:28.957Z,26.600
2023-05-31T14:07:21.023Z,26.500
2023-05-31T14:08:25.461Z,26.500
2023-05-31T14:09:27.004Z,26.500
2023-05-31T14:10:22.971Z,26.500
2023-05-31T14:11:26.046Z,26.500
2023-05-31T14:12:24.672Z,26.400
2023-05-31T14:13:26.604Z,26.400
2023-05-31T14:14:20.691Z,26.400
2023-05-31T14:15:31.841Z,26.300
2023-05-31T14:16:24.351Z,26.300
2023-05-31T14:17:22.672Z,26.300
2023-05-31T14:18:22.334Z,26.300
2023-05-31T14:19:25.123Z,26.350
2023-05-31T14:20:24.913Z,26.400
2023-05-31T14:21:21.015Z,26.400
2023-05-31T14:22:35.810Z,26.400
2023-05-31T14:24:19.488Z,26.400
2023-05-31T14:25:26.552Z,26.500
2023-05-31T14:26:29.287Z,26.500
2023-05-31T14:28:21.118Z,26.600
2023-05-31T14:29:21.523Z,26.600
2023-05-31T14:30:27.217Z,26.600
2023-05-31T14:31:23.988Z,26.600
2023-05-31T14:33:30.708Z,26.600
2023-05-31T14:34:24.444Z,26.600
2023-05-31T14:35:23.134Z,26.700
2023-05-31T14:36:23.230Z,26.600
2023-05-31T14:37:34.465Z,26.600
2023-05-31T14:38:28.793Z,26.600
2023-05-31T14:39:22.050Z,26.600
2023-05-31T14:40:23.381Z,26.800
2023-05-31T14:41:29.157Z,26.800
2023-05-31T14:42:20.808Z,26.750
2023-05-31T14:43:25.786Z,26.700
2023-05-31T14:44:28.817Z,26.700
2023-05-31T14:46:28.830Z,26.700
2023-05-31T14:47:22.643Z,26.700
2023-05-31T14:48:27.453Z,26.700
2023-05-31T14:49:20.489Z,26.600
2023-05-31T14:50:31.873Z,26.500
2023-05-31T14:51:20.481Z,26.500
2023-05-31T14:52:25.308Z,26.400
2023-05-31T14:53:32.553Z,26.300